createdAt,value
2018-06-15T00:01:20.359Z,100.00
2018-06-15T00:02:47.732Z,100.00
2018-06-15T00:04:11.168Z,100.00
2018-06-15T00:05:38.690Z,100.00
2018-06-15T00:07:06.143Z,100.00
2018-06-15T00:08:33.476Z,100.00
2018-06-15T00:10:05.142Z,100.00
2018-06-15T00:11:28.647Z,100.00
2018-06-15T00:13:00.065Z,100.00
2018-06-15T00:14:23.589Z,100.00
2018-06-15T00:15:50.906Z,100.00
2018-06-15T00:17:18.299Z,100.00
2018-06-15T00:18:45.766Z,100.00
2018-06-15T00:20:13.196Z,100.00
2018-06-15T00:21:40.692Z,100.00
2018-06-15T00:23:12.012Z,100.00
2018-06-15T00:24:35.465Z,100.00
2018-06-15T00:26:03.005Z,100.00
2018-06-15T00:27:30.462Z,100.00
2018-06-15T00:28:57.889Z,100.00
2018-06-15T00:30:29.452Z,100.00
2018-06-15T00:31:56.939Z,100.00
2018-06-15T00:33:24.505Z,100.00
2018-06-15T00:34:52.052Z,100.00
2018-06-15T00:36:19.577Z,100.00
2018-06-15T00:37:47.372Z,100.00
2018-06-15T00:39:10.730Z,100.00
2018-06-15T00:40:38.200Z,100.00
2018-06-15T00:42:09.784Z,100.00
2018-06-15T00:43:37.344Z,100.00
2018-06-15T00:45:04.812Z,100.00
2018-06-15T00:46:28.227Z,100.00
2018-06-15T00:47:55.861Z,100.00
2018-06-15T00:49:27.112Z,100.00
2018-06-15T00:50:54.446Z,100.00
2018-06-15T00:52:17.948Z,100.00
2018-06-15T00:53:49.524Z,100.00
2018-06-15T00:55:16.935Z,100.00
2018-06-15T00:56:40.430Z,100.00
2018-06-15T00:58:07.933Z,100.00
2018-06-15T00:59:39.450Z,100.00
2018-06-15T01:01:06.799Z,100.00
2018-06-15T01:02:30.137Z,100.00
2018-06-15T01:03:57.635Z,100.00
2018-06-15T01:05:25.195Z,100.00
2018-06-15T01:06:56.623Z,100.00
2018-06-15T01:08:20.058Z,100.00
2018-06-15T01:09:47.454Z,100.00
2018-06-15T01:11:18.765Z,100.00
2018-06-15T01:12:42.305Z,100.00
2018-06-15T01:14:09.686Z,100.00
2018-06-15T01:15:37.270Z,100.00
2018-06-15T01:17:04.736Z,100.00
2018-06-15T01:18:32.107Z,100.00
2018-06-15T01:19:59.677Z,100.00
2018-06-15T01:21:27.023Z,100.00
2018-06-15T01:22:58.707Z,100.00
2018-06-15T01:24:26.138Z,100.00
2018-06-15T01:25:49.672Z,100.00
2018-06-15T01:27:17.222Z,100.00
2018-06-15T01:28:44.579Z,100.00
2018-06-15T01:30:16.194Z,100.00
2018-06-15T01:31:39.600Z,100.00
2018-06-15T01:33:11.210Z,100.00
2018-06-15T01:34:38.224Z,100.00
2018-06-15T01:36:01.718Z,100.00
2018-06-15T01:37:33.004Z,100.00
2018-06-15T01:38:56.298Z,100.00
2018-06-15T01:40:27.695Z,100.00
2018-06-15T01:41:51.123Z,100.00
2018-06-15T01:43:22.668Z,100.00
2018-06-15T01:44:50.165Z,100.00
2018-06-15T01:46:17.802Z,100.00
2018-06-15T01:47:41.156Z,100.00
2018-06-15T01:49:12.750Z,100.00
2018-06-15T01:50:35.886Z,100.00
2018-06-15T01:52:03.422Z,100.00
2018-06-15T01:53:34.972Z,100.00
2018-06-15T01:54:58.479Z,100.00
2018-06-15T01:56:26.058Z,100.00
2018-06-15T01:57:53.509Z,100.00
2018-06-15T01:59:20.708Z,100.00
2018-06-15T02:00:52.294Z,100.00
2018-06-15T02:02:15.728Z,100.00
2018-06-15T02:03:43.031Z,100.00
2018-06-15T02:05:14.620Z,100.00
2018-06-15T02:06:41.941Z,100.00
2018-06-15T02:08:05.255Z,100.00
2018-06-15T02:09:32.880Z,100.00
2018-06-15T02:11:04.204Z,100.00
2018-06-15T02:12:31.879Z,100.00
2018-06-15T02:13:59.301Z,100.00
2018-06-15T02:15:26.767Z,100.00
2018-06-15T02:16:54.105Z,100.00
2018-06-15T02:18:17.618Z,100.00
2018-06-15T02:19:45.085Z,100.00
2018-06-15T02:21:12.605Z,100.00
2018-06-15T02:22:40.175Z,100.00
2018-06-15T02:24:11.639Z,100.00
2018-06-15T02:25:35.019Z,100.00
2018-06-15T02:27:02.487Z,100.00
2018-06-15T02:28:34.125Z,100.00
2018-06-15T02:30:01.525Z,100.00
2018-06-15T02:31:24.833Z,100.00
2018-06-15T02:32:52.154Z,100.00
2018-06-15T02:34:23.779Z,100.00
2018-06-15T02:35:47.314Z,100.00
2018-06-15T02:37:18.943Z,100.00
2018-06-15T02:38:42.279Z,100.00
2018-06-15T02:40:09.593Z,100.00
2018-06-15T02:41:37.030Z,100.00
2018-06-15T02:43:08.540Z,100.00
2018-06-15T02:44:31.931Z,100.00
2018-06-15T02:45:59.480Z,100.00
2018-06-15T02:47:26.899Z,100.00
2018-06-15T02:48:54.422Z,100.00
2018-06-15T02:50:21.881Z,100.00
2018-06-15T02:51:49.249Z,100.00
2018-06-15T02:53:16.812Z,100.00
2018-06-15T02:54:48.434Z,100.00
2018-06-15T02:56:11.979Z,100.00
2018-06-15T02:57:43.571Z,100.00
2018-06-15T02:59:07.134Z,100.00
2018-06-15T03:00:34.417Z,100.00
2018-06-15T03:02:01.830Z,100.00
2018-06-15T03:03:29.365Z,100.00
2018-06-15T03:04:56.954Z,100.00
2018-06-15T03:06:28.519Z,100.00
2018-06-15T03:07:52.048Z,100.00
2018-06-15T03:09:23.493Z,100.00
2018-06-15T03:10:50.882Z,100.00
2018-06-15T03:12:14.231Z,100.00
2018-06-15T03:13:41.681Z,100.00
2018-06-15T03:15:13.240Z,100.00
2018-06-15T03:16:40.584Z,100.00
2018-06-15T03:18:03.967Z,100.00
2018-06-15T03:19:31.545Z,100.00
2018-06-15T03:20:58.857Z,100.00
2018-06-15T03:22:26.308Z,100.00
2018-06-15T03:23:57.946Z,100.00
2018-06-15T03:25:21.376Z,100.00
2018-06-15T03:26:48.933Z,100.00
2018-06-15T03:28:16.532Z,100.00
2018-06-15T03:29:44.041Z,100.00
2018-06-15T03:31:15.521Z,100.00
2018-06-15T03:32:42.953Z,100.00
2018-06-15T03:34:06.421Z,100.00
2018-06-15T03:35:33.913Z,100.00
2018-06-15T03:37:01.335Z,100.00
2018-06-15T03:38:28.933Z,100.00
2018-06-15T03:40:00.561Z,100.00
2018-06-15T03:41:24.003Z,100.00
2018-06-15T03:42:55.676Z,100.00
2018-06-15T03:44:19.039Z,100.00
2018-06-15T03:45:46.699Z,100.00
2018-06-15T03:47:18.179Z,100.00
2018-06-15T03:48:41.475Z,100.00
2018-06-15T03:50:12.974Z,100.00
2018-06-15T03:51:36.529Z,100.00
2018-06-15T03:53:08.070Z,100.00
2018-06-15T03:54:35.382Z,100.00
2018-06-15T03:56:02.954Z,100.00
2018-06-15T03:57:30.399Z,100.00
2018-06-15T03:58:53.923Z,100.00
2018-06-15T04:00:21.250Z,100.00
2018-06-15T04:01:48.719Z,100.00
2018-06-15T04:03:20.254Z,100.00
2018-06-15T04:04:43.612Z,100.00
2018-06-15T04:06:11.120Z,100.00
2018-06-15T04:07:38.706Z,100.00
2018-06-15T04:09:06.173Z,100.00
2018-06-15T04:10:37.424Z,100.00
2018-06-15T04:12:04.915Z,100.00
2018-06-15T04:13:32.181Z,100.00
2018-06-15T04:14:55.641Z,100.00
2018-06-15T04:16:27.205Z,100.00
2018-06-15T04:17:50.669Z,100.00
2018-06-15T04:19:17.956Z,100.00
2018-06-15T04:20:49.433Z,100.00
2018-06-15T04:22:12.859Z,100.00
2018-06-15T04:23:40.293Z,100.00
2018-06-15T04:25:07.883Z,100.00
2018-06-15T04:26:35.261Z,100.00
2018-06-15T04:28:06.687Z,100.00
2018-06-15T04:29:34.141Z,100.00
2018-06-15T04:31:01.588Z,100.00
2018-06-15T04:32:25.024Z,100.00
2018-06-15T04:33:52.594Z,100.00
2018-06-15T04:35:24.118Z,100.00
2018-06-15T04:36:51.665Z,100.00
2018-06-15T04:38:15.179Z,100.00
2018-06-15T04:39:46.631Z,100.00
2018-06-15T04:41:10.076Z,100.00
2018-06-15T04:42:37.468Z,100.00
2018-06-15T04:44:04.811Z,100.00
2018-06-15T04:45:32.146Z,100.00
2018-06-15T04:47:03.773Z,100.00
2018-06-15T04:48:31.359Z,100.00
2018-06-15T04:49:54.833Z,100.00
2018-06-15T04:51:22.385Z,100.00
2018-06-15T04:52:49.975Z,100.00
2018-06-15T04:54:21.418Z,100.00
2018-06-15T04:55:48.860Z,100.00
2018-06-15T04:57:16.057Z,100.00
2018-06-15T04:58:39.625Z,100.00
2018-06-15T05:00:07.175Z,100.00
2018-06-15T05:01:34.311Z,100.00
2018-06-15T05:03:01.764Z,100.00
2018-06-15T05:04:33.369Z,100.00
2018-06-15T05:06:00.870Z,100.00
2018-06-15T05:07:28.481Z,100.00
2018-06-15T05:08:55.823Z,100.00
2018-06-15T05:10:23.356Z,100.00
2018-06-15T05:11:50.945Z,100.00
2018-06-15T05:13:14.508Z,100.00
2018-06-15T05:14:45.967Z,100.00
2018-06-15T05:16:09.458Z,100.00
2018-06-15T05:17:36.668Z,100.00
2018-06-15T05:19:04.188Z,100.00
2018-06-15T05:20:35.686Z,100.00
2018-06-15T05:21:59.145Z,100.00
2018-06-15T05:23:30.626Z,100.00
2018-06-15T05:24:54.025Z,100.00
2018-06-15T05:26:25.528Z,100.00
2018-06-15T05:27:49.085Z,100.00
2018-06-15T05:29:16.526Z,100.00
2018-06-15T05:30:43.991Z,100.00
2018-06-15T05:32:11.386Z,100.00
2018-06-15T05:33:38.854Z,100.00
2018-06-15T05:35:10.426Z,100.00
2018-06-15T05:36:33.698Z,100.00
2018-06-15T05:38:00.929Z,100.00
2018-06-15T05:39:28.308Z,100.00
2018-06-15T05:40:59.377Z,100.00
2018-06-15T05:42:26.667Z,100.00
2018-06-15T05:43:54.175Z,100.00
2018-06-15T05:45:17.507Z,100.00
2018-06-15T05:46:45.066Z,100.00
2018-06-15T05:48:12.555Z,100.00
2018-06-15T05:49:39.959Z,100.00
2018-06-15T05:51:07.410Z,100.00
2018-06-15T05:52:34.719Z,100.00
2018-06-15T05:54:02.490Z,100.00
2018-06-15T05:55:29.956Z,100.00
2018-06-15T05:57:01.515Z,100.00
2018-06-15T05:58:29.053Z,100.00
2018-06-15T05:59:52.564Z,100.00
2018-06-15T06:01:20.007Z,100.00
2018-06-15T06:02:47.634Z,100.00
2018-06-15T06:05:42.602Z,100.00
2018-06-15T06:07:10.195Z,100.00
2018-06-15T06:08:37.681Z,100.00
2018-06-15T06:10:09.199Z,100.00
2018-06-15T06:11:32.400Z,100.00
2018-06-15T06:12:59.883Z,100.00
2018-06-15T06:14:31.560Z,100.00
2018-06-15T06:15:55.048Z,100.00
2018-06-15T06:17:22.677Z,100.00
2018-06-15T06:18:50.244Z,100.00
2018-06-15T06:20:17.828Z,100.00
2018-06-15T06:21:45.373Z,100.00
2018-06-15T06:23:12.994Z,100.00
2018-06-15T06:24:44.453Z,100.00
2018-06-15T06:26:07.753Z,100.00
2018-06-15T06:27:39.251Z,100.00
2018-06-15T06:29:02.787Z,100.00
2018-06-15T06:30:30.077Z,100.00
2018-06-15T06:31:57.774Z,100.00
2018-06-15T06:33:29.388Z,100.00
2018-06-15T06:34:52.844Z,100.00
2018-06-15T06:36:20.220Z,100.00
2018-06-15T06:37:47.517Z,100.00
2018-06-15T06:39:18.942Z,99.02
2018-06-15T06:40:46.427Z,99.80
2018-06-15T06:42:09.873Z,99.62
2018-06-15T06:43:37.483Z,97.82
2018-06-15T06:45:04.731Z,95.41
2018-06-15T06:46:36.322Z,94.66
2018-06-15T06:47:59.916Z,92.18
2018-06-15T06:49:31.499Z,91.06
2018-06-15T06:50:54.951Z,89.52
2018-06-15T06:52:22.520Z,88.65
2018-06-15T06:53:53.997Z,87.86
2018-06-15T06:55:17.565Z,87.33
2018-06-15T06:56:44.988Z,88.01
2018-06-15T06:58:12.624Z,88.10
2018-06-15T06:59:40.053Z,87.63
2018-06-15T07:01:07.569Z,88.13
2018-06-15T07:02:34.863Z,87.23
2018-06-15T07:04:02.283Z,85.74
2018-06-15T07:05:33.891Z,86.82
2018-06-15T07:07:01.410Z,86.43
2018-06-15T07:08:24.938Z,86.37
2018-06-15T07:09:52.337Z,85.38
2018-06-15T07:11:19.920Z,86.81
2018-06-15T07:12:47.418Z,85.69
2018-06-15T07:14:19.096Z,86.18
2018-06-15T07:15:42.691Z,84.17
2018-06-15T07:17:13.925Z,84.59
2018-06-15T07:18:37.466Z,82.18
2018-06-15T07:20:04.885Z,81.16
2018-06-15T07:21:32.143Z,79.11
2018-06-15T07:22:59.784Z,77.82
2018-06-15T07:24:27.197Z,77.44
2018-06-15T07:25:58.746Z,80.45
2018-06-15T07:27:22.154Z,78.67
2018-06-15T07:28:49.934Z,76.27
2018-06-15T07:30:17.478Z,75.87
2018-06-15T07:31:49.067Z,74.62
2018-06-15T07:33:12.519Z,74.58
2018-06-15T07:34:43.974Z,73.99
2018-06-15T07:36:07.586Z,75.49
2018-06-15T07:37:34.965Z,74.69
2018-06-15T07:39:02.359Z,76.00
2018-06-15T07:40:29.948Z,75.20
2018-06-15T07:41:57.492Z,76.61
2018-06-15T07:43:28.945Z,78.38
2018-06-15T07:44:52.402Z,80.76
2018-06-15T07:46:24.023Z,79.01
2018-06-15T07:47:51.572Z,77.19
2018-06-15T07:49:14.684Z,76.38
2018-06-15T07:50:46.152Z,76.62
2018-06-15T07:52:09.612Z,77.09
2018-06-15T07:53:37.121Z,73.72
2018-06-15T07:55:04.711Z,72.42
2018-06-15T07:56:36.190Z,74.73
2018-06-15T07:57:59.719Z,75.64
2018-06-15T07:59:31.392Z,76.71
2018-06-15T08:00:54.871Z,78.06
2018-06-15T08:02:22.465Z,78.14
2018-06-15T08:03:49.943Z,78.02
2018-06-15T08:05:17.692Z,77.72
2018-06-15T08:06:45.107Z,79.39
2018-06-15T08:08:12.644Z,81.35
2018-06-15T08:09:44.270Z,81.71
2018-06-15T08:11:11.703Z,82.58
2018-06-15T08:12:35.027Z,83.28
2018-06-15T08:14:02.659Z,82.32
2018-06-15T08:15:34.353Z,80.86
2018-06-15T08:17:01.990Z,80.74
2018-06-15T08:18:25.352Z,81.25
2018-06-15T08:19:56.682Z,80.77
2018-06-15T08:21:20.118Z,79.17
2018-06-15T08:22:47.533Z,78.24
2018-06-15T08:24:15.085Z,78.53
2018-06-15T08:25:42.772Z,78.23
2018-06-15T08:27:14.291Z,76.64
2018-06-15T08:28:41.810Z,78.53
2018-06-15T08:30:05.073Z,79.20
2018-06-15T08:31:32.789Z,76.21
2018-06-15T08:33:00.243Z,76.44
2018-06-15T08:34:31.890Z,72.70
2018-06-15T08:35:59.425Z,71.49
2018-06-15T08:37:23.096Z,73.51
2018-06-15T08:38:54.640Z,74.01
2018-06-15T08:40:22.034Z,72.34
2018-06-15T08:41:45.405Z,70.42
2018-06-15T08:43:12.926Z,69.81
2018-06-15T08:44:44.432Z,71.37
2018-06-15T08:46:07.850Z,70.65
2018-06-15T08:47:39.322Z,70.68
2018-06-15T08:49:06.868Z,71.80
2018-06-15T08:50:30.371Z,71.57
2018-06-15T08:51:57.753Z,73.33
2018-06-15T08:53:29.235Z,75.75
2018-06-15T08:54:52.774Z,75.21
2018-06-15T08:56:24.343Z,72.51
2018-06-15T08:57:47.789Z,70.08
2018-06-15T08:59:15.358Z,69.90
2018-06-15T09:00:43.039Z,69.41
2018-06-15T09:02:10.408Z,70.34
2018-06-15T09:03:38.034Z,69.37
2018-06-15T09:05:05.333Z,67.40
2018-06-15T09:06:32.875Z,68.26
2018-06-15T09:08:00.406Z,70.28
2018-06-15T09:09:27.812Z,68.17
2018-06-15T09:10:55.386Z,67.31
2018-06-15T09:12:26.935Z,65.15
2018-06-15T09:13:50.489Z,65.17
2018-06-15T09:15:22.076Z,64.37
2018-06-15T09:16:45.522Z,64.97
2018-06-15T09:18:17.230Z,64.09
2018-06-15T09:19:40.893Z,65.76
2018-06-15T09:21:08.494Z,63.29
2018-06-15T09:22:40.026Z,63.89
2018-06-15T09:24:03.528Z,63.83
2018-06-15T09:25:31.171Z,64.67
2018-06-15T09:26:58.767Z,63.68
2018-06-15T09:28:26.375Z,64.42
2018-06-15T09:29:53.907Z,64.44
2018-06-15T09:31:21.616Z,65.01
2018-06-15T09:32:49.128Z,65.20
2018-06-15T09:34:16.575Z,65.14
2018-06-15T09:35:44.149Z,63.79
2018-06-15T09:37:11.481Z,64.11
2018-06-15T09:38:38.917Z,61.65
2018-06-15T09:40:10.584Z,61.55
2018-06-15T09:41:38.028Z,62.65
2018-06-15T09:43:05.445Z,61.85
2018-06-15T09:44:29.034Z,62.32
2018-06-15T09:46:06.365Z,61.18
2018-06-15T09:47:33.752Z,61.31
2018-06-15T09:49:05.205Z,63.99
2018-06-15T09:50:32.851Z,65.29
2018-06-15T09:51:55.880Z,65.91
2018-06-15T09:53:27.533Z,64.70
2018-06-15T09:54:51.025Z,65.17
2018-06-15T09:56:22.535Z,67.14
2018-06-15T09:57:46.198Z,63.48
2018-06-15T09:59:13.599Z,63.54
2018-06-15T10:00:41.293Z,62.60
2018-06-15T10:02:08.903Z,60.79
2018-06-15T10:03:36.440Z,62.05
2018-06-15T10:05:03.858Z,62.40
2018-06-15T10:06:31.333Z,59.26
2018-06-15T10:07:59.455Z,60.09
2018-06-15T10:09:30.933Z,59.87
2018-06-15T10:10:54.539Z,58.72
2018-06-15T10:12:26.189Z,55.99
2018-06-15T10:13:53.598Z,58.12
2018-06-15T10:15:17.039Z,58.42
2018-06-15T10:16:44.522Z,57.48
2018-06-15T10:18:12.008Z,57.71
2018-06-15T10:19:43.451Z,58.53
2018-06-15T10:21:07.002Z,59.39
2018-06-15T10:22:34.594Z,58.83
2018-06-15T10:24:02.225Z,58.59
2018-06-15T10:25:29.812Z,59.83
2018-06-15T10:26:57.439Z,56.25
2018-06-15T10:28:24.819Z,56.16
2018-06-15T10:29:56.328Z,55.81
2018-06-15T10:31:19.820Z,58.12
2018-06-15T10:32:47.329Z,57.70
2018-06-15T10:34:14.952Z,57.57
2018-06-15T10:35:42.350Z,56.43
2018-06-15T10:37:09.819Z,56.45
2018-06-15T10:38:37.584Z,56.64
2018-06-15T10:40:04.878Z,56.53
2018-06-15T10:41:36.336Z,56.62
2018-06-15T10:43:03.862Z,56.45
2018-06-15T10:44:27.382Z,57.90
2018-06-15T10:45:55.050Z,53.82
2018-06-15T10:47:22.635Z,54.93
2018-06-15T10:48:50.194Z,55.88
2018-06-15T10:50:21.484Z,58.71
2018-06-15T10:51:45.045Z,57.46
2018-06-15T10:53:16.698Z,54.40
2018-06-15T10:54:40.137Z,53.42
2018-06-15T10:56:07.810Z,52.99
2018-06-15T10:57:39.351Z,53.66
2018-06-15T10:59:06.759Z,53.23
2018-06-15T11:00:30.438Z,50.47
2018-06-15T11:01:57.880Z,51.18
2018-06-15T11:03:25.456Z,50.21
2018-06-15T11:04:52.951Z,49.78
2018-06-15T11:06:20.588Z,51.10
2018-06-15T11:07:48.118Z,52.05
2018-06-15T11:09:15.754Z,50.02
2018-06-15T11:10:47.217Z,49.17
2018-06-15T11:12:11.053Z,50.68
2018-06-15T11:13:38.465Z,50.57
2018-06-15T11:15:05.976Z,51.57
2018-06-15T11:16:33.763Z,49.17
2018-06-15T11:18:01.309Z,49.67
2018-06-15T11:19:29.085Z,49.61
2018-06-15T11:21:00.784Z,47.36
2018-06-15T11:22:24.391Z,46.98
2018-06-15T11:23:55.901Z,46.13
2018-06-15T11:25:19.299Z,45.40
2018-06-15T11:26:46.765Z,45.23
2018-06-15T11:28:14.388Z,43.32
2018-06-15T11:29:45.911Z,44.85
2018-06-15T11:31:09.634Z,45.56
2018-06-15T11:32:37.233Z,45.31
2018-06-15T11:34:04.881Z,44.53
2018-06-15T11:35:32.530Z,45.94
2018-06-15T11:37:04.499Z,46.53
2018-06-15T11:38:28.267Z,44.49
2018-06-15T11:39:59.835Z,44.50
2018-06-15T11:41:23.561Z,44.10
2018-06-15T11:42:51.182Z,44.99
2018-06-15T11:44:22.829Z,43.83
2018-06-15T11:45:46.390Z,44.21
2018-06-15T11:47:13.915Z,43.89
2018-06-15T11:48:41.450Z,43.50
2018-06-15T11:50:09.255Z,45.40
2018-06-15T11:51:40.930Z,44.52
2018-06-15T11:53:04.573Z,42.95
2018-06-15T11:54:36.250Z,42.07
2018-06-15T11:55:59.887Z,42.42
2018-06-15T11:57:27.656Z,42.09
2018-06-15T11:58:55.401Z,42.17
2018-06-15T12:00:23.121Z,42.59
2018-06-15T12:01:50.700Z,41.50
2018-06-15T12:03:18.094Z,42.38
2018-06-15T12:04:45.873Z,41.84
2018-06-15T12:06:13.404Z,41.80
2018-06-15T12:07:41.050Z,41.06
2018-06-15T12:09:08.753Z,41.19
2018-06-15T12:10:36.253Z,42.16
2018-06-15T12:12:07.819Z,42.27
2018-06-15T12:13:35.618Z,42.54
2018-06-15T12:14:59.320Z,42.52
2018-06-15T12:16:26.942Z,42.48
2018-06-15T12:17:54.357Z,40.76
2018-06-15T12:19:25.902Z,43.46
2018-06-15T12:20:49.320Z,42.55
2018-06-15T12:22:20.964Z,43.52
2018-06-15T12:23:44.541Z,43.20
2018-06-15T12:25:12.022Z,42.62
2018-06-15T12:26:39.756Z,42.17
2018-06-15T12:28:07.390Z,42.21
2018-06-15T12:29:34.812Z,41.66
2018-06-15T12:31:02.522Z,42.63
2018-06-15T12:32:30.151Z,43.32
2018-06-15T12:33:57.809Z,43.15
2018-06-15T12:35:25.404Z,44.15
2018-06-15T12:36:56.955Z,46.13
2018-06-15T12:38:24.621Z,45.20
2018-06-15T12:39:52.208Z,46.41
2018-06-15T12:41:15.679Z,44.51
2018-06-15T12:42:43.487Z,44.72
2018-06-15T12:44:10.942Z,47.09
2018-06-15T12:45:38.564Z,45.27
2018-06-15T12:47:05.932Z,48.11
2018-06-15T12:48:33.640Z,45.20
2018-06-15T12:50:01.244Z,46.10
2018-06-15T12:51:32.673Z,43.40
2018-06-15T12:52:56.464Z,46.13
2018-06-15T12:54:24.133Z,45.79
2018-06-15T12:55:51.694Z,47.27
2018-06-15T12:57:19.224Z,46.12
2018-06-15T12:58:46.845Z,47.51
2018-06-15T13:00:14.482Z,46.92
2018-06-15T13:01:41.985Z,46.71
2018-06-15T13:03:09.642Z,47.55
2018-06-15T13:04:37.171Z,46.60
2018-06-15T13:06:04.948Z,47.05
2018-06-15T13:07:32.658Z,46.34
2018-06-15T13:09:00.208Z,47.66
2018-06-15T13:10:27.841Z,46.57
2018-06-15T13:11:59.329Z,47.51
2018-06-15T13:13:22.952Z,48.65
2018-06-15T13:14:54.513Z,47.94
2018-06-15T13:16:17.999Z,48.37
2018-06-15T13:17:45.705Z,48.56
2018-06-15T13:19:13.311Z,48.26
2018-06-15T13:20:44.942Z,47.81
2018-06-15T13:22:08.485Z,49.37
2018-06-15T13:23:36.070Z,49.17
2018-06-15T13:25:03.683Z,50.21
2018-06-15T13:26:31.150Z,48.34
2018-06-15T13:27:58.760Z,52.82
2018-06-15T13:29:30.404Z,56.42
2018-06-15T13:30:57.958Z,50.44
2018-06-15T13:32:25.591Z,49.43
2018-06-15T13:33:48.987Z,50.18
2018-06-15T13:35:16.583Z,47.72
2018-06-15T13:36:44.240Z,50.43
2018-06-15T13:38:15.855Z,52.22
2018-06-15T13:39:39.378Z,50.01
2018-06-15T13:41:06.846Z,49.12
2018-06-15T13:42:34.539Z,50.40
2018-06-15T13:44:05.857Z,49.30
2018-06-15T13:45:29.314Z,49.24
2018-06-15T13:46:56.902Z,49.53
2018-06-15T13:48:28.489Z,48.32
2018-06-15T13:49:52.156Z,48.03
2018-06-15T13:51:23.577Z,49.05
2018-06-15T13:52:51.101Z,47.95
2018-06-15T13:54:18.652Z,48.47
2018-06-15T13:55:42.158Z,49.00
2018-06-15T13:57:09.721Z,49.31
2018-06-15T13:58:37.292Z,49.72
2018-06-15T14:00:04.785Z,49.69
2018-06-15T14:01:32.496Z,51.05
2018-06-15T14:02:59.998Z,48.12
2018-06-15T14:04:27.518Z,48.76
2018-06-15T14:05:59.081Z,48.88
2018-06-15T14:07:22.504Z,49.67
2018-06-15T14:08:50.146Z,49.29
2018-06-15T14:10:17.883Z,48.36
2018-06-15T14:11:45.496Z,48.47
2018-06-15T14:13:17.090Z,48.38
2018-06-15T14:14:40.599Z,48.27
2018-06-15T14:16:12.278Z,48.14
2018-06-15T14:17:35.798Z,49.85
2018-06-15T14:19:03.355Z,48.21
2018-06-15T14:20:31.049Z,47.40
2018-06-15T14:21:58.574Z,47.07
2018-06-15T14:23:30.117Z,46.89
2018-06-15T14:24:53.611Z,47.94
2018-06-15T14:26:21.230Z,47.03
2018-06-15T14:27:48.831Z,47.47
2018-06-15T14:29:16.210Z,47.13
2018-06-15T14:30:47.917Z,47.21
2018-06-15T14:32:11.387Z,48.50
2018-06-15T14:33:43.190Z,47.65
2018-06-15T14:35:06.625Z,51.33
2018-06-15T14:36:34.312Z,49.10
2018-06-15T14:38:01.787Z,52.18
2018-06-15T14:39:29.475Z,46.55
2018-06-15T14:40:57.013Z,46.41
2018-06-15T14:42:24.622Z,46.65
2018-06-15T14:43:56.249Z,50.54
2018-06-15T14:45:23.858Z,47.56
2018-06-15T14:46:51.451Z,48.67
2018-06-15T14:48:15.010Z,48.19
2018-06-15T14:49:42.673Z,48.13
2018-06-15T14:51:14.246Z,47.33
2018-06-15T14:52:37.785Z,46.91
2018-06-15T14:54:05.286Z,47.80
2018-06-15T14:55:32.760Z,47.38
2018-06-15T14:57:00.311Z,47.28
2018-06-15T14:58:27.725Z,46.73
2018-06-15T14:59:59.391Z,47.59
2018-06-15T15:01:23.000Z,47.38
2018-06-15T15:02:50.590Z,47.85
2018-06-15T15:04:18.245Z,47.10
2018-06-15T15:05:45.908Z,48.04
2018-06-15T15:07:17.351Z,48.89
2018-06-15T15:08:44.968Z,48.14
2018-06-15T15:10:08.257Z,48.44
2018-06-15T15:11:36.015Z,49.15
2018-06-15T15:13:07.691Z,48.72
2018-06-15T15:14:31.198Z,47.78
2018-06-15T15:15:58.772Z,48.14
2018-06-15T15:17:26.383Z,49.00
2018-06-15T15:18:57.765Z,50.00
2018-06-15T15:20:21.183Z,49.19
2018-06-15T15:21:52.753Z,49.85
2018-06-15T15:23:16.422Z,50.17
2018-06-15T15:24:43.930Z,48.84
2018-06-15T15:26:11.551Z,49.50
2018-06-15T15:27:38.796Z,49.14
2018-06-15T15:29:10.428Z,48.84
2018-06-15T15:30:33.935Z,49.31
2018-06-15T15:32:01.466Z,48.77
2018-06-15T15:33:29.030Z,47.91
2018-06-15T15:34:56.515Z,47.61
2018-06-15T15:36:24.005Z,48.23
2018-06-15T15:37:55.489Z,47.71
2018-06-15T15:39:18.889Z,47.61
2018-06-15T15:40:46.627Z,48.88
2018-06-15T15:42:18.247Z,49.37
2018-06-15T15:43:41.589Z,50.16
2018-06-15T15:45:09.091Z,51.45
2018-06-15T15:46:36.662Z,50.50
2018-06-15T15:48:04.192Z,49.75
2018-06-15T15:49:31.933Z,48.93
2018-06-15T15:51:03.429Z,49.41
2018-06-15T15:52:27.029Z,47.58
2018-06-15T15:53:54.492Z,48.01
2018-06-15T15:55:25.935Z,46.91
2018-06-15T15:56:49.443Z,46.33
2018-06-15T15:58:17.125Z,46.37
2018-06-15T15:59:48.653Z,46.88
2018-06-15T16:01:16.155Z,47.17
2018-06-15T16:02:39.636Z,47.44
2018-06-15T16:04:10.988Z,47.48
2018-06-15T16:05:38.596Z,46.99
2018-06-15T16:07:01.948Z,47.08
2018-06-15T16:08:29.527Z,47.08
2018-06-15T16:09:57.597Z,46.35
2018-06-15T16:11:25.175Z,47.43
2018-06-15T16:12:56.911Z,46.44
2018-06-15T16:14:20.061Z,47.68
2018-06-15T16:15:47.666Z,47.60
2018-06-15T16:17:19.141Z,46.37
2018-06-15T16:18:42.595Z,48.30
2018-06-15T16:20:10.101Z,47.21
2018-06-15T16:21:37.533Z,47.76
2018-06-15T16:23:04.950Z,47.81
2018-06-15T16:24:32.319Z,46.27
2018-06-15T16:25:59.794Z,46.45
2018-06-15T16:27:27.457Z,46.42
2018-06-15T16:28:58.893Z,45.46
2018-06-15T16:30:22.311Z,45.80
2018-06-15T16:31:50.024Z,46.32
2018-06-15T16:33:21.472Z,44.87
2018-06-15T16:34:45.039Z,46.28
2018-06-15T16:36:12.669Z,46.79
2018-06-15T16:37:44.243Z,46.42
2018-06-15T16:39:07.531Z,47.19
2018-06-15T16:40:35.011Z,45.86
2018-06-15T16:42:06.490Z,46.42
2018-06-15T16:43:29.867Z,46.35
2018-06-15T16:45:01.378Z,45.87
2018-06-15T16:46:28.995Z,46.12
2018-06-15T16:47:56.667Z,45.65
2018-06-15T16:49:23.908Z,46.07
2018-06-15T16:50:47.316Z,45.36
2018-06-15T16:52:14.850Z,46.66
2018-06-15T16:53:42.351Z,46.75
2018-06-15T16:55:09.850Z,47.44
2018-06-15T16:56:41.178Z,45.99
2018-06-15T16:58:08.692Z,45.53
2018-06-15T16:59:32.024Z,45.84
2018-06-15T17:00:59.388Z,46.23
2018-06-15T17:02:27.095Z,45.88
2018-06-15T17:03:54.750Z,46.66
2018-06-15T17:05:22.370Z,45.90
2018-06-15T17:06:50.089Z,45.71
2018-06-15T17:08:21.594Z,45.04
2018-06-15T17:09:49.043Z,45.12
2018-06-15T17:11:16.499Z,46.03
2018-06-15T17:12:40.058Z,45.80
2018-06-15T17:14:11.567Z,46.40
2018-06-15T17:15:35.086Z,47.04
2018-06-15T17:17:06.658Z,46.83
2018-06-15T17:18:30.096Z,47.38
2018-06-15T17:19:57.649Z,86.63
2018-06-15T17:21:25.262Z,100.00
2018-06-15T17:22:52.535Z,100.00
2018-06-15T17:24:20.083Z,100.00
2018-06-15T17:25:47.528Z,100.00
2018-06-15T17:27:18.879Z,100.00
2018-06-15T17:28:42.330Z,100.00
2018-06-15T17:30:13.740Z,100.00
2018-06-15T17:31:37.018Z,100.00
2018-06-15T17:33:04.504Z,100.00
2018-06-15T17:34:35.800Z,100.00
2018-06-15T17:35:59.149Z,100.00
2018-06-15T17:37:26.606Z,100.00
2018-06-15T17:38:53.969Z,100.00
2018-06-15T17:40:25.345Z,100.00
2018-06-15T17:41:48.687Z,100.00
2018-06-15T17:43:15.888Z,100.00
2018-06-15T17:44:47.257Z,100.00
2018-06-15T17:46:14.549Z,100.00
2018-06-15T17:47:42.163Z,100.00
2018-06-15T17:49:05.573Z,100.00
2018-06-15T17:50:36.930Z,100.00
2018-06-15T17:52:04.229Z,100.00
2018-06-15T17:53:31.676Z,100.00
2018-06-15T17:54:55.386Z,100.00
2018-06-15T17:56:26.881Z,91.98
2018-06-15T17:57:49.881Z,100.00
2018-06-15T17:59:17.081Z,92.00
2018-06-15T18:00:48.543Z,77.13
2018-06-15T18:02:11.896Z,75.14
2018-06-15T18:03:39.298Z,84.06
2018-06-15T18:05:11.140Z,69.01
2018-06-15T18:06:38.379Z,71.41
2018-06-15T18:08:05.852Z,67.87
2018-06-15T18:09:29.168Z,68.09
2018-06-15T18:11:00.491Z,71.36
2018-06-15T18:12:23.961Z,71.53
2018-06-15T18:13:51.341Z,68.60
2018-06-15T18:15:18.789Z,68.63
2018-06-15T18:16:50.168Z,64.23
2018-06-15T18:18:17.590Z,67.56
2018-06-15T18:19:41.140Z,63.27
2018-06-15T18:21:12.444Z,62.61
2018-06-15T18:22:39.913Z,65.18
2018-06-15T18:24:03.310Z,63.51
2018-06-15T18:25:30.966Z,59.20
2018-06-15T18:26:58.118Z,61.23
2018-06-15T18:28:29.600Z,61.46
2018-06-15T18:29:53.056Z,62.39
2018-06-15T18:31:20.427Z,60.90
2018-06-15T18:32:47.954Z,59.37
2018-06-15T18:34:15.305Z,60.91
2018-06-15T18:35:42.619Z,59.70